sensor_id;sensor_type;location;lat;lon;timestamp;pressure;altitude;pressure_sealevel;temperature;humidity
2549;BME280;1284;53.520;10.248;2023-03-03T00:01:15;101703.00;;;3.71;91.69
2549;BME280;1284;53.520;10.248;2023-03-03T00:03:40;101698.72;;;3.75;91.92
2549;BME280;1284;53.520;10.248;2023-03-03T00:06:09;101697.31;;;3.78;92.44
2549;BME280;1284;53.520;10.248;2023-03-03T00:08:35;101687.69;;;3.82;92.41
2549;BME280;1284;53.520;10.248;2023-03-03T00:11:00;101687.94;;;3.85;92.81
2549;BME280;1284;53.520;10.248;2023-03-03T00:13:29;101690.97;;;3.97;92.42
2549;BME280;1284;53.520;10.248;2023-03-03T00:16:10;101685.72;;;3.92;92.62
2549;BME280;1284;53.520;10.248;2023-03-03T00:18:41;101686.53;;;3.93;92.90
2549;BME280;1284;53.520;10.248;2023-03-03T00:23:50;101697.53;;;4.05;92.80
2549;BME280;1284;53.520;10.248;2023-03-03T00:26:36;101703.47;;;4.02;93.60
2549;BME280;1284;53.520;10.248;2023-03-03T00:29:23;101700.41;;;3.90;94.57
2549;BME280;1284;53.520;10.248;2023-03-03T00:31:50;101686.44;;;3.98;94.56
2549;BME280;1284;53.520;10.248;2023-03-03T00:34:24;101687.25;;;3.98;94.88
2549;BME280;1284;53.520;10.248;2023-03-03T00:36:56;101689.63;;;4.00;95.04
2549;BME280;1284;53.520;10.248;2023-03-03T00:39:28;101691.66;;;4.08;95.56
2549;BME280;1284;53.520;10.248;2023-03-03T00:41:56;101703.69;;;4.05;95.45
2549;BME280;1284;53.520;10.248;2023-03-03T00:47:35;101688.69;;;3.91;97.08
2549;BME280;1284;53.520;10.248;2023-03-03T00:52:33;101688.28;;;4.02;97.43
2549;BME280;1284;53.520;10.248;2023-03-03T00:54:59;101686.44;;;3.98;97.55
2549;BME280;1284;53.520;10.248;2023-03-03T00:57:25;101684.13;;;3.91;98.77
2549;BME280;1284;53.520;10.248;2023-03-03T00:59:51;101684.69;;;4.12;97.64
2549;BME280;1284;53.520;10.248;2023-03-03T01:02:16;101686.88;;;4.05;97.85
2549;BME280;1284;53.520;10.248;2023-03-03T01:04:48;101685.53;;;4.07;97.96
2549;BME280;1284;53.520;10.248;2023-03-03T01:07:15;101687.69;;;4.05;98.25
2549;BME280;1284;53.520;10.248;2023-03-03T01:09:41;101685.59;;;4.02;98.62
2549;BME280;1284;53.520;10.248;2023-03-03T01:12:06;101681.72;;;4.13;98.69
2549;BME280;1284;53.520;10.248;2023-03-03T01:14:32;101686.13;;;4.04;99.44
2549;BME280;1284;53.520;10.248;2023-03-03T01:16:57;101671.28;;;4.17;98.65
2549;BME280;1284;53.520;10.248;2023-03-03T01:19:23;101672.88;;;4.18;99.29
2549;BME280;1284;53.520;10.248;2023-03-03T01:21:49;101668.63;;;4.17;99.05
2549;BME280;1284;53.520;10.248;2023-03-03T01:24:14;101666.66;;;4.04;99.64
2549;BME280;1284;53.520;10.248;2023-03-03T01:26:40;101652.13;;;4.15;99.63
2549;BME280;1284;53.520;10.248;2023-03-03T01:29:05;101672.22;;;4.26;99.47
2549;BME280;1284;53.520;10.248;2023-03-03T01:31:31;101667.91;;;4.11;100.00
2549;BME280;1284;53.520;10.248;2023-03-03T01:33:56;101661.22;;;4.14;100.00
2549;BME280;1284;53.520;10.248;2023-03-03T01:36:24;101652.28;;;4.23;99.79
2549;BME280;1284;53.520;10.248;2023-03-03T01:38:49;101651.91;;;4.30;99.39
2549;BME280;1284;53.520;10.248;2023-03-03T01:41:15;101651.06;;;4.16;99.62
2549;BME280;1284;53.520;10.248;2023-03-03T01:43:46;101644.41;;;4.13;100.00
2549;BME280;1284;53.520;10.248;2023-03-03T01:49:28;101646.88;;;4.28;100.00
2549;BME280;1284;53.520;10.248;2023-03-03T01:51:57;101648.31;;;4.21;100.00
2549;BME280;1284;53.520;10.248;2023-03-03T01:54:29;101648.97;;;4.31;100.00
2549;BME280;1284;53.520;10.248;2023-03-03T01:57:04;101643.69;;;4.26;100.00
2549;BME280;1284;53.520;10.248;2023-03-03T01:59:35;101637.16;;;4.37;100.00
2549;BME280;1284;53.520;10.248;2023-03-03T02:02:03;101651.28;;;4.19;100.00
2549;BME280;1284;53.520;10.248;2023-03-03T02:04:28;101642.34;;;4.29;100.00
2549;BME280;1284;53.520;10.248;2023-03-03T02:06:57;101642.44;;;4.24;100.00
2549;BME280;1284;53.520;10.248;2023-03-03T02:09:44;101640.97;;;4.13;100.00
2549;BME280;1284;53.520;10.248;2023-03-03T02:12:15;101649.41;;;4.20;100.00
2549;BME280;1284;53.520;10.248;2023-03-03T02:14:41;101638.00;;;4.14;100.00
2549;BME280;1284;53.520;10.248;2023-03-03T02:17:07;101643.38;;;3.91;100.00
2549;BME280;1284;53.520;10.248;2023-03-03T02:22:22;101639.75;;;4.24;100.00
2549;BME280;1284;53.520;10.248;2023-03-03T02:24:59;101639.88;;;4.14;100.00
2549;BME280;1284;53.520;10.248;2023-03-03T02:27:29;101641.03;;;4.08;100.00
2549;BME280;1284;53.520;10.248;2023-03-03T02:29:56;101649.06;;;4.03;100.00
2549;BME280;1284;53.520;10.248;2023-03-03T02:32:22;101645.34;;;4.22;100.00
2549;BME280;1284;53.520;10.248;2023-03-03T02:34:51;101637.50;;;4.12;100.00
2549;BME280;1284;53.520;10.248;2023-03-03T02:37:18;101641.75;;;4.32;100.00
2549;BME280;1284;53.520;10.248;2023-03-03T02:39:44;101636.41;;;4.32;100.00
2549;BME280;1284;53.520;10.248;2023-03-03T02:42:20;101643.19;;;4.24;100.00
2549;BME280;1284;53.520;10.248;2023-03-03T02:44:51;101643.56;;;4.18;100.00
2549;BME280;1284;53.520;10.248;2023-03-03T02:47:17;101647.78;;;4.00;100.00
2549;BME280;1284;53.520;10.248;2023-03-03T02:49:42;101646.16;;;4.23;100.00
2549;BME280;1284;53.520;10.248;2023-03-03T02:52:10;101643.66;;;4.31;100.00
2549;BME280;1284;53.520;10.248;2023-03-03T02:54:38;101651.28;;;4.38;100.00
2549;BME280;1284;53.520;10.248;2023-03-03T02:57:04;101647.59;;;4.34;100.00
2549;BME280;1284;53.520;10.248;2023-03-03T02:59:30;101641.69;;;4.37;100.00
2549;BME280;1284;53.520;10.248;2023-03-03T03:02:00;101644.56;;;4.40;100.00
2549;BME280;1284;53.520;10.248;2023-03-03T03:04:27;101656.31;;;4.39;100.00
2549;BME280;1284;53.520;10.248;2023-03-03T03:06:54;101653.09;;;4.24;100.00
2549;BME280;1284;53.520;10.248;2023-03-03T03:09:21;101645.81;;;4.29;100.00
2549;BME280;1284;53.520;10.248;2023-03-03T03:11:49;101652.56;;;4.40;100.00
2549;BME280;1284;53.520;10.248;2023-03-03T03:14:17;101665.09;;;4.40;100.00
2549;BME280;1284;53.520;10.248;2023-03-03T03:16:43;101651.28;;;4.19;100.00
2549;BME280;1284;53.520;10.248;2023-03-03T03:19:09;101655.59;;;4.15;100.00
2549;BME280;1284;53.520;10.248;2023-03-03T03:21:36;101654.22;;;4.18;100.00
2549;BME280;1284;53.520;10.248;2023-03-03T03:24:03;101655.25;;;4.22;100.00
2549;BME280;1284;53.520;10.248;2023-03-03T03:26:29;101653.56;;;4.26;100.00
2549;BME280;1284;53.520;10.248;2023-03-03T03:28:55;101654.06;;;4.28;100.00
2549;BME280;1284;53.520;10.248;2023-03-03T03:31:21;101666.03;;;4.30;100.00
2549;BME280;1284;53.520;10.248;2023-03-03T03:33:47;101660.66;;;4.35;100.00
2549;BME280;1284;53.520;10.248;2023-03-03T03:36:14;101662.66;;;4.25;100.00
2549;BME280;1284;53.520;10.248;2023-03-03T03:38:40;101658.97;;;4.21;100.00
2549;BME280;1284;53.520;10.248;2023-03-03T03:41:07;101654.06;;;4.28;100.00
2549;BME280;1284;53.520;10.248;2023-03-03T03:43:34;101653.72;;;4.34;100.00
2549;BME280;1284;53.520;10.248;2023-03-03T03:46:00;101647.03;;;4.37;100.00
2549;BME280;1284;53.520;10.248;2023-03-03T03:48:25;101657.16;;;4.16;100.00
2549;BME280;1284;53.520;10.248;2023-03-03T03:50:51;101650.81;;;4.12;100.00
2549;BME280;1284;53.520;10.248;2023-03-03T03:53:18;101664.09;;;4.17;100.00
2549;BME280;1284;53.520;10.248;2023-03-03T03:55:45;101655.75;;;4.24;100.00
2549;BME280;1284;53.520;10.248;2023-03-03T03:58:13;101656.72;;;4.28;100.00
2549;BME280;1284;53.520;10.248;2023-03-03T04:00:40;101646.56;;;4.30;100.00
2549;BME280;1284;53.520;10.248;2023-03-03T04:03:06;101644.38;;;4.37;100.00
2549;BME280;1284;53.520;10.248;2023-03-03T04:05:32;101626.91;;;4.26;99.82
2549;BME280;1284;53.520;10.248;2023-03-03T04:07:57;101635.41;;;4.28;100.00
2549;BME280;1284;53.520;10.248;2023-03-03T04:10:23;101628.22;;;4.28;99.01
2549;BME280;1284;53.520;10.248;2023-03-03T04:12:48;101638.38;;;4.08;99.93
2549;BME280;1284;53.520;10.248;2023-03-03T04:15:14;101635.22;;;3.82;100.00
2549;BME280;1284;53.520;10.248;2023-03-03T04:17:41;101642.81;;;3.70;100.00
2549;BME280;1284;53.520;10.248;2023-03-03T04:20:10;101629.16;;;3.77;100.00
2549;BME280;1284;53.520;10.248;2023-03-03T04:22:37;101636.69;;;3.93;100.00
2549;BME280;1284;53.520;10.248;2023-03-03T04:25:04;101631.44;;;3.88;100.00
2549;BME280;1284;53.520;10.248;2023-03-03T04:27:35;101639.94;;;3.90;100.00
2549;BME280;1284;53.520;10.248;2023-03-03T04:30:03;101640.88;;;3.99;100.00
2549;BME280;1284;53.520;10.248;2023-03-03T04:32:28;101640.53;;;4.06;100.00
2549;BME280;1284;53.520;10.248;2023-03-03T04:34:55;101644.16;;;3.91;100.00
2549;BME280;1284;53.520;10.248;2023-03-03T04:37:21;101639.41;;;3.88;100.00
2549;BME280;1284;53.520;10.248;2023-03-03T04:39:46;101642.00;;;3.93;100.00
2549;BME280;1284;53.520;10.248;2023-03-03T04:42:12;101644.31;;;3.81;100.00
2549;BME280;1284;53.520;10.248;2023-03-03T04:44:38;101644.94;;;3.73;100.00
2549;BME280;1284;53.520;10.248;2023-03-03T04:47:03;101640.88;;;3.76;100.00
2549;BME280;1284;53.520;10.248;2023-03-03T04:49:30;101643.09;;;3.68;100.00
2549;BME280;1284;53.520;10.248;2023-03-03T04:51:56;101637.06;;;3.63;100.00
2549;BME280;1284;53.520;10.248;2023-03-03T04:54:22;101644.53;;;3.61;100.00
2549;BME280;1284;53.520;10.248;2023-03-03T04:56:48;101648.94;;;3.71;100.00
2549;BME280;1284;53.520;10.248;2023-03-03T04:59:14;101652.34;;;3.76;100.00
2549;BME280;1284;53.520;10.248;2023-03-03T05:01:40;101653.03;;;3.63;100.00
2549;BME280;1284;53.520;10.248;2023-03-03T05:04:06;101649.91;;;3.80;100.00
2549;BME280;1284;53.520;10.248;2023-03-03T05:06:31;101658.06;;;3.88;100.00
2549;BME280;1284;53.520;10.248;2023-03-03T05:08:56;101654.06;;;3.67;100.00
2549;BME280;1284;53.520;10.248;2023-03-03T05:11:22;101644.31;;;3.57;100.00
2549;BME280;1284;53.520;10.248;2023-03-03T05:13:47;101649.06;;;3.60;100.00
2549;BME280;1284;53.520;10.248;2023-03-03T05:16:13;101649.47;;;3.73;100.00
2549;BME280;1284;53.520;10.248;2023-03-03T05:18:38;101649.63;;;3.81;100.00
2549;BME280;1284;53.520;10.248;2023-03-03T05:21:04;101646.00;;;3.72;100.00
2549;BME280;1284;53.520;10.248;2023-03-03T05:23:29;101652.81;;;3.59;100.00
2549;BME280;1284;53.520;10.248;2023-03-03T05:25:56;101647.00;;;3.76;100.00
2549;BME280;1284;53.520;10.248;2023-03-03T05:28:21;101650.81;;;3.70;100.00
2549;BME280;1284;53.520;10.248;2023-03-03T05:30:47;101650.97;;;3.55;100.00
2549;BME280;1284;53.520;10.248;2023-03-03T05:33:14;101653.03;;;3.87;100.00
2549;BME280;1284;53.520;10.248;2023-03-03T05:35:40;101651.44;;;3.86;100.00
2549;BME280;1284;53.520;10.248;2023-03-03T05:38:05;101649.56;;;3.86;99.68
2549;BME280;1284;53.520;10.248;2023-03-03T05:40:31;101657.34;;;3.83;99.42
2549;BME280;1284;53.520;10.248;2023-03-03T05:42:56;101662.19;;;3.76;99.91
2549;BME280;1284;53.520;10.248;2023-03-03T05:45:22;101660.94;;;3.68;100.00
2549;BME280;1284;53.520;10.248;2023-03-03T05:47:52;101661.41;;;3.51;100.00
2549;BME280;1284;53.520;10.248;2023-03-03T05:50:20;101663.13;;;3.42;100.00
2549;BME280;1284;53.520;10.248;2023-03-03T05:52:49;101671.03;;;3.47;100.00
2549;BME280;1284;53.520;10.248;2023-03-03T05:55:15;101659.34;;;3.43;100.00
2549;BME280;1284;53.520;10.248;2023-03-03T05:57:41;101647.69;;;3.39;100.00
2549;BME280;1284;53.520;10.248;2023-03-03T06:00:07;101651.50;;;3.57;100.00
2549;BME280;1284;53.520;10.248;2023-03-03T06:02:40;101659.38;;;3.67;99.89
2549;BME280;1284;53.520;10.248;2023-03-03T06:05:06;101657.91;;;3.56;100.00
2549;BME280;1284;53.520;10.248;2023-03-03T06:07:32;101651.72;;;3.60;100.00
2549;BME280;1284;53.520;10.248;2023-03-03T06:09:58;101655.88;;;3.72;99.51
2549;BME280;1284;53.520;10.248;2023-03-03T06:12:25;101670.22;;;3.47;99.83
2549;BME280;1284;53.520;10.248;2023-03-03T06:14:50;101670.69;;;3.30;100.00
2549;BME280;1284;53.520;10.248;2023-03-03T06:17:15;101673.34;;;3.30;100.00
2549;BME280;1284;53.520;10.248;2023-03-03T06:19:41;101672.66;;;3.43;100.00
2549;BME280;1284;53.520;10.248;2023-03-03T06:22:07;101679.53;;;3.49;100.00
2549;BME280;1284;53.520;10.248;2023-03-03T06:24:33;101676.78;;;3.59;100.00
2549;BME280;1284;53.520;10.248;2023-03-03T06:26:59;101677.19;;;3.43;100.00
2549;BME280;1284;53.520;10.248;2023-03-03T06:29:25;101681.88;;;3.56;100.00
2549;BME280;1284;53.520;10.248;2023-03-03T06:31:51;101685.78;;;3.63;100.00
2549;BME280;1284;53.520;10.248;2023-03-03T06:34:16;101690.47;;;3.48;100.00
2549;BME280;1284;53.520;10.248;2023-03-03T06:36:42;101685.47;;;3.41;100.00
2549;BME280;1284;53.520;10.248;2023-03-03T06:39:08;101682.25;;;3.44;100.00
2549;BME280;1284;53.520;10.248;2023-03-03T06:41:33;101692.91;;;3.44;100.00
2549;BME280;1284;53.520;10.248;2023-03-03T06:43:58;101680.56;;;3.53;100.00
2549;BME280;1284;53.520;10.248;2023-03-03T06:46:25;101682.50;;;3.72;100.00
2549;BME280;1284;53.520;10.248;2023-03-03T06:48:51;101688.28;;;3.79;100.00
2549;BME280;1284;53.520;10.248;2023-03-03T06:51:28;101691.09;;;3.87;100.00
2549;BME280;1284;53.520;10.248;2023-03-03T06:53:56;101697.72;;;3.90;100.00
2549;BME280;1284;53.520;10.248;2023-03-03T06:56:26;101689.91;;;3.98;99.58
2549;BME280;1284;53.520;10.248;2023-03-03T06:58:56;101691.16;;;4.06;98.74
2549;BME280;1284;53.520;10.248;2023-03-03T07:01:23;101690.06;;;4.07;98.45
2549;BME280;1284;53.520;10.248;2023-03-03T07:03:49;101687.34;;;4.12;97.70
2549;BME280;1284;53.520;10.248;2023-03-03T07:06:23;101690.97;;;4.21;96.87
2549;BME280;1284;53.520;10.248;2023-03-03T07:08:50;101697.19;;;3.93;98.17
2549;BME280;1284;53.520;10.248;2023-03-03T07:11:21;101713.94;;;3.93;99.14
2549;BME280;1284;53.520;10.248;2023-03-03T07:13:49;101724.09;;;3.67;100.00
2549;BME280;1284;53.520;10.248;2023-03-03T07:16:16;101736.97;;;3.55;100.00
2549;BME280;1284;53.520;10.248;2023-03-03T07:18:58;101739.66;;;3.55;100.00
2549;BME280;1284;53.520;10.248;2023-03-03T07:21:35;101736.63;;;3.62;100.00
2549;BME280;1284;53.520;10.248;2023-03-03T07:26:35;101733.13;;;3.66;100.00
2549;BME280;1284;53.520;10.248;2023-03-03T07:29:24;101735.91;;;3.85;100.00
2549;BME280;1284;53.520;10.248;2023-03-03T07:31:52;101736.75;;;4.04;100.00
2549;BME280;1284;53.520;10.248;2023-03-03T07:34:44;101730.75;;;4.12;100.00
2549;BME280;1284;53.520;10.248;2023-03-03T07:37:36;101743.25;;;4.17;100.00
2549;BME280;1284;53.520;10.248;2023-03-03T07:40:30;101743.19;;;3.98;100.00
2549;BME280;1284;53.520;10.248;2023-03-03T07:42:59;101739.84;;;4.11;100.00
2549;BME280;1284;53.520;10.248;2023-03-03T07:45:35;101745.75;;;4.08;100.00
2549;BME280;1284;53.520;10.248;2023-03-03T07:50:33;101751.81;;;4.14;100.00
2549;BME280;1284;53.520;10.248;2023-03-03T07:52:59;101738.28;;;4.10;100.00
2549;BME280;1284;53.520;10.248;2023-03-03T07:55:38;101736.19;;;4.26;100.00
2549;BME280;1284;53.520;10.248;2023-03-03T08:03:45;101734.59;;;4.06;100.00
2549;BME280;1284;53.520;10.248;2023-03-03T08:09:18;101742.09;;;4.23;100.00
2549;BME280;1284;53.520;10.248;2023-03-03T08:11:50;101743.56;;;4.34;100.00
2549;BME280;1284;53.520;10.248;2023-03-03T08:14:29;101730.91;;;4.44;100.00
2549;BME280;1284;53.520;10.248;2023-03-03T08:16:56;101735.41;;;4.49;100.00
2549;BME280;1284;53.520;10.248;2023-03-03T08:19:23;101731.72;;;4.45;100.00
2549;BME280;1284;53.520;10.248;2023-03-03T08:21:48;101729.25;;;4.48;100.00
2549;BME280;1284;53.520;10.248;2023-03-03T08:24:14;101737.69;;;4.55;99.84
2549;BME280;1284;53.520;10.248;2023-03-03T08:26:40;101735.09;;;4.50;100.00
2549;BME280;1284;53.520;10.248;2023-03-03T08:29:05;101735.44;;;4.44;99.93
2549;BME280;1284;53.520;10.248;2023-03-03T08:31:31;101740.84;;;4.57;99.93
2549;BME280;1284;53.520;10.248;2023-03-03T08:33:56;101732.06;;;4.57;99.66
2549;BME280;1284;53.520;10.248;2023-03-03T08:36:26;101727.19;;;4.64;99.90
2549;BME280;1284;53.520;10.248;2023-03-03T08:38:51;101724.72;;;4.68;100.00
2549;BME280;1284;53.520;10.248;2023-03-03T08:41:16;101727.03;;;4.74;99.23
2549;BME280;1284;53.520;10.248;2023-03-03T08:43:42;101730.84;;;4.87;98.52
2549;BME280;1284;53.520;10.248;2023-03-03T08:46:09;101728.88;;;4.92;97.79
2549;BME280;1284;53.520;10.248;2023-03-03T08:48:36;101728.03;;;4.97;98.23
2549;BME280;1284;53.520;10.248;2023-03-03T08:51:03;101723.50;;;4.97;98.04
2549;BME280;1284;53.520;10.248;2023-03-03T08:53:29;101723.81;;;5.09;97.44
2549;BME280;1284;53.520;10.248;2023-03-03T08:55:55;101727.56;;;5.08;97.07
2549;BME280;1284;53.520;10.248;2023-03-03T08:58:20;101728.09;;;5.10;97.15
2549;BME280;1284;53.520;10.248;2023-03-03T09:00:46;101736.25;;;5.00;97.50
2549;BME280;1284;53.520;10.248;2023-03-03T09:03:15;101739.84;;;4.91;97.93
2549;BME280;1284;53.520;10.248;2023-03-03T09:05:40;101733.56;;;5.00;97.05
2549;BME280;1284;53.520;10.248;2023-03-03T09:08:07;101735.59;;;4.90;97.46
2549;BME280;1284;53.520;10.248;2023-03-03T09:10:32;101740.72;;;4.86;98.43
2549;BME280;1284;53.520;10.248;2023-03-03T09:13:06;101738.13;;;4.81;98.44
2549;BME280;1284;53.520;10.248;2023-03-03T09:15:35;101750.69;;;4.99;97.39
2549;BME280;1284;53.520;10.248;2023-03-03T09:18:13;101748.28;;;4.98;97.53
2549;BME280;1284;53.520;10.248;2023-03-03T09:23:43;101741.81;;;4.85;97.58
2549;BME280;1284;53.520;10.248;2023-03-03T09:28:47;101746.63;;;4.83;98.84
2549;BME280;1284;53.520;10.248;2023-03-03T09:31:30;101739.38;;;4.70;99.67
2549;BME280;1284;53.520;10.248;2023-03-03T09:34:01;101744.31;;;4.77;99.98
2549;BME280;1284;53.520;10.248;2023-03-03T09:36:34;101747.28;;;4.75;100.00
2549;BME280;1284;53.520;10.248;2023-03-03T09:39:15;101758.53;;;4.91;99.67
2549;BME280;1284;53.520;10.248;2023-03-03T09:41:56;101750.78;;;5.08;98.52
2549;BME280;1284;53.520;10.248;2023-03-03T09:49:35;101761.31;;;5.18;98.60
2549;BME280;1284;53.520;10.248;2023-03-03T09:52:18;101762.41;;;5.17;98.29
2549;BME280;1284;53.520;10.248;2023-03-03T09:57:23;101753.13;;;4.77;100.00
2549;BME280;1284;53.520;10.248;2023-03-03T10:00:30;101759.13;;;4.88;100.00
2549;BME280;1284;53.520;10.248;2023-03-03T10:05:49;101768.69;;;5.07;100.00
2549;BME280;1284;53.520;10.248;2023-03-03T10:16:43;101772.09;;;4.94;100.00
2549;BME280;1284;53.520;10.248;2023-03-03T10:22:16;101768.47;;;5.04;100.00
2549;BME280;1284;53.520;10.248;2023-03-03T10:25:07;101759.47;;;5.18;100.00
2549;BME280;1284;53.520;10.248;2023-03-03T10:27:54;101756.13;;;5.26;99.57
2549;BME280;1284;53.520;10.248;2023-03-03T10:30:54;101756.75;;;5.37;99.18
2549;BME280;1284;53.520;10.248;2023-03-03T10:36:59;101755.44;;;5.34;98.38
2549;BME280;1284;53.520;10.248;2023-03-03T10:44:57;101753.63;;;5.62;96.69
2549;BME280;1284;53.520;10.248;2023-03-03T10:50:16;101746.09;;;5.50;97.49
2549;BME280;1284;53.520;10.248;2023-03-03T10:55:34;101746.09;;;5.50;98.96
2549;BME280;1284;53.520;10.248;2023-03-03T11:11:58;101726.22;;;5.57;99.27
2549;BME280;1284;53.520;10.248;2023-03-03T11:20:03;101722.25;;;6.00;97.79
2549;BME280;1284;53.520;10.248;2023-03-03T11:22:43;101714.91;;;5.92;98.07
2549;BME280;1284;53.520;10.248;2023-03-03T11:25:22;101720.25;;;6.19;97.62
2549;BME280;1284;53.520;10.248;2023-03-03T11:30:46;101720.03;;;6.43;95.23
2549;BME280;1284;53.520;10.248;2023-03-03T11:38:47;101710.78;;;6.49;95.62
2549;BME280;1284;53.520;10.248;2023-03-03T11:41:33;101709.94;;;6.26;95.35
2549;BME280;1284;53.520;10.248;2023-03-03T11:44:21;101715.75;;;6.42;94.88
2549;BME280;1284;53.520;10.248;2023-03-03T11:46:53;101703.13;;;6.06;95.81
2549;BME280;1284;53.520;10.248;2023-03-03T11:49:32;101702.03;;;6.21;96.59
2549;BME280;1284;53.520;10.248;2023-03-03T11:55:04;101692.41;;;6.69;95.15
2549;BME280;1284;53.520;10.248;2023-03-03T12:05:41;101682.91;;;6.85;93.88
2549;BME280;1284;53.520;10.248;2023-03-03T12:19:14;101676.72;;;6.98;91.86
2549;BME280;1284;53.520;10.248;2023-03-03T12:32:57;101655.16;;;7.03;92.90
2549;BME280;1284;53.520;10.248;2023-03-03T12:38:37;101655.44;;;7.24;92.58
2549;BME280;1284;53.520;10.248;2023-03-03T12:43:59;101643.97;;;7.32;91.58
2549;BME280;1284;53.520;10.248;2023-03-03T12:49:11;101634.34;;;7.62;91.13
2549;BME280;1284;53.520;10.248;2023-03-03T12:54:29;101613.16;;;8.16;88.91
2549;BME280;1284;53.520;10.248;2023-03-03T12:57:00;101610.66;;;8.37;87.12
2549;BME280;1284;53.520;10.248;2023-03-03T13:07:37;101590.47;;;8.31;86.14
2549;BME280;1284;53.520;10.248;2023-03-03T13:12:58;101586.06;;;8.44;84.63
2549;BME280;1284;53.520;10.248;2023-03-03T13:15:40;101595.31;;;8.63;83.72
2549;BME280;1284;53.520;10.248;2023-03-03T13:18:15;101585.91;;;8.32;84.42
2549;BME280;1284;53.520;10.248;2023-03-03T13:20:54;101584.28;;;8.56;83.49
2549;BME280;1284;53.520;10.248;2023-03-03T13:25:55;101593.94;;;8.49;83.60
2549;BME280;1284;53.520;10.248;2023-03-03T13:30:49;101602.72;;;7.89;86.38
2549;BME280;1284;53.520;10.248;2023-03-03T13:33:32;101587.41;;;7.98;86.85
2549;BME280;1284;53.520;10.248;2023-03-03T13:36:10;101585.22;;;8.00;87.25
2549;BME280;1284;53.520;10.248;2023-03-03T13:38:41;101585.19;;;7.92;87.84
2549;BME280;1284;53.520;10.248;2023-03-03T13:41:44;101571.66;;;8.14;86.58
2549;BME280;1284;53.520;10.248;2023-03-03T13:44:28;101568.66;;;8.33;85.28
2549;BME280;1284;53.520;10.248;2023-03-03T13:49:45;101561.41;;;8.16;85.82
2549;BME280;1284;53.520;10.248;2023-03-03T13:52:20;101566.13;;;8.02;85.84
2549;BME280;1284;53.520;10.248;2023-03-03T14:07:58;101534.25;;;8.17;82.17
2549;BME280;1284;53.520;10.248;2023-03-03T14:10:31;101526.53;;;7.99;81.67
2549;BME280;1284;53.520;10.248;2023-03-03T14:13:08;101526.69;;;8.19;79.60
2549;BME280;1284;53.520;10.248;2023-03-03T14:15:42;101524.31;;;8.18;80.03
2549;BME280;1284;53.520;10.248;2023-03-03T14:18:24;101531.06;;;8.67;78.10
2549;BME280;1284;53.520;10.248;2023-03-03T14:20:55;101515.03;;;8.87;76.53
2549;BME280;1284;53.520;10.248;2023-03-03T14:28:50;101506.44;;;8.65;77.39
2549;BME280;1284;53.520;10.248;2023-03-03T14:31:26;101513.88;;;8.42;78.62
2549;BME280;1284;53.520;10.248;2023-03-03T14:36:39;101500.66;;;8.37;79.97
2549;BME280;1284;53.520;10.248;2023-03-03T14:41:57;101500.78;;;8.41;79.55
2549;BME280;1284;53.520;10.248;2023-03-03T14:44:29;101486.13;;;8.12;80.18
2549;BME280;1284;53.520;10.248;2023-03-03T14:47:13;101484.53;;;8.20;80.62
2549;BME280;1284;53.520;10.248;2023-03-03T14:49:42;101481.56;;;8.30;79.92
2549;BME280;1284;53.520;10.248;2023-03-03T14:52:20;101492.22;;;8.56;78.63
2549;BME280;1284;53.520;10.248;2023-03-03T14:54:55;101489.41;;;8.52;78.14
2549;BME280;1284;53.520;10.248;2023-03-03T14:57:41;101475.06;;;8.40;78.45
2549;BME280;1284;53.520;10.248;2023-03-03T15:05:17;101473.81;;;8.37;77.92
2549;BME280;1284;53.520;10.248;2023-03-03T15:07:46;101476.00;;;8.44;78.06
2549;BME280;1284;53.520;10.248;2023-03-03T15:10:25;101470.66;;;8.35;78.72
2549;BME280;1284;53.520;10.248;2023-03-03T15:12:51;101471.44;;;8.01;79.38
2549;BME280;1284;53.520;10.248;2023-03-03T15:15:20;101461.66;;;8.23;78.12
2549;BME280;1284;53.520;10.248;2023-03-03T15:22:45;101455.03;;;8.37;75.59
2549;BME280;1284;53.520;10.248;2023-03-03T15:25:20;101461.94;;;8.47;74.98
2549;BME280;1284;53.520;10.248;2023-03-03T15:27:52;101456.78;;;8.33;75.36
2549;BME280;1284;53.520;10.248;2023-03-03T15:31:05;101453.28;;;8.24;75.72
2549;BME280;1284;53.520;10.248;2023-03-03T15:38:47;101449.84;;;7.98;77.26
2549;BME280;1284;53.520;10.248;2023-03-03T15:41:42;101444.34;;;7.86;78.16
2549;BME280;1284;53.520;10.248;2023-03-03T15:44:25;101453.47;;;8.02;77.02
2549;BME280;1284;53.520;10.248;2023-03-03T15:47:08;101442.75;;;8.02;77.79
2549;BME280;1284;53.520;10.248;2023-03-03T15:50:10;101447.78;;;8.12;77.39
2549;BME280;1284;53.520;10.248;2023-03-03T15:55:25;101430.94;;;8.03;78.08
2549;BME280;1284;53.520;10.248;2023-03-03T16:03:32;101433.28;;;8.04;78.45
2549;BME280;1284;53.520;10.248;2023-03-03T16:06:18;101432.16;;;8.23;77.58
2549;BME280;1284;53.520;10.248;2023-03-03T16:30:40;101435.81;;;7.32;81.05
2549;BME280;1284;53.520;10.248;2023-03-03T16:33:18;101450.47;;;7.44;81.34
2549;BME280;1284;53.520;10.248;2023-03-03T16:35:54;101439.16;;;7.64;79.91
2549;BME280;1284;53.520;10.248;2023-03-03T16:38:30;101444.03;;;7.87;78.77
2549;BME280;1284;53.520;10.248;2023-03-03T16:40:59;101445.94;;;7.95;78.22
2549;BME280;1284;53.520;10.248;2023-03-03T16:46:32;101442.78;;;7.51;80.88
2549;BME280;1284;53.520;10.248;2023-03-03T16:49:13;101447.34;;;7.76;80.16
2549;BME280;1284;53.520;10.248;2023-03-03T16:54:29;101431.69;;;7.18;82.42
2549;BME280;1284;53.520;10.248;2023-03-03T16:57:04;101437.09;;;7.35;81.76
2549;BME280;1284;53.520;10.248;2023-03-03T17:05:26;101445.13;;;7.61;80.31
2549;BME280;1284;53.520;10.248;2023-03-03T17:08:30;101441.66;;;7.52;80.12
2549;BME280;1284;53.520;10.248;2023-03-03T17:19:30;101444.81;;;7.71;79.96
2549;BME280;1284;53.520;10.248;2023-03-03T17:22:28;101445.47;;;7.68;79.72
2549;BME280;1284;53.520;10.248;2023-03-03T17:30:44;101443.25;;;7.53;79.61
2549;BME280;1284;53.520;10.248;2023-03-03T17:36:11;101450.19;;;7.54;80.08
2549;BME280;1284;53.520;10.248;2023-03-03T17:39:01;101446.41;;;7.55;80.67
2549;BME280;1284;53.520;10.248;2023-03-03T17:46:56;101440.53;;;7.27;83.10
2549;BME280;1284;53.520;10.248;2023-03-03T17:52:52;101445.47;;;7.51;82.48